To NAV CANADA Home Page Login to a new session Search on AWWS site Feedback and Comments Disclaimer Vers la page française équivalente Tips FAQ What's new on the site To the Forecasts and Observations / NOTAM section To "File a Flight Plan" website Publications and other links Update of the User's profile FIC Telephone Numbers My Weather Data Folder Route Weather Data Regional Weather Data Local Weather Data To the Forecasts and Observations / NOTAM section
Request Generated 04/19/2014 at 17:04:31 UTC . Weather information available at that time is displayed.

METAR/TAF

LA RONGE/LA RONGE (BARBER FIELD)/SK    

METAR CYVC 191600Z 04006KT 2SM -SN VV010 M01/M03 A2982 RMK SN8
SLP120=
METAR CYVC 191500Z 04009KT 2SM -SN VV010 M02/M03 A2983 RMK SN8
SLP121=
METAR CYVC 191400Z 04008KT 2SM -SN OVC020 M02/M03 A2983 RMK SC8
SLP123=

TAF AMD CYVC 191631Z 1916/2001 04008KT 6SM -SN SCT020 OVC030 TEMPO
1916/1918 2SM -SN VV010
FM191800 05008KT P6SM SCT020 OVC030 TEMPO 1918/1920 3SM -SN
BKN020
FM192000 32005KT P6SM SCT020 BKN030 TEMPO 1920/2001 BKN020
RMK NXT FCST BY 191900Z=
Your time UTC time
Weather data provided by Environment Canada and NAV CANADA